FW4199 Weather Reports


Display with metric or nautical units.
time (UTC)temp
F
wind
direction
speed
MPH
gust
MPH
rain 1hr
in
rain 24hr
in
rain mn
in
humidity
%
barometer
mb
20210118092517 35 270 5.0 15.0 0.00 0.00 0.00 80 1000.0
20210118091517 35 292 4.0 12.0 0.00 0.00 0.00 80 1000.0
20210118090526 34 292 3.0 9.0 0.00 0.00 0.00 80 1000.0
20210118085518 34 270 3.0 12.0 0.00 0.00 0.00 81 1000.0
20210118084519 34 292 1.0 5.0 0.00 0.00 0.00 80 1000.0
20210118083540 34 247 2.0 9.0 0.00 0.00 0.00 80 999.8
20210118082525 34 315 3.0 9.0 0.00 0.00 0.00 81 999.6
20210118081519 34 292 3.0 11.0 0.00 0.00 0.00 81 999.6
20210118080521 34 292 4.0 9.0 0.00 0.00 0.00 81 999.7
20210118075517 34 292 4.0 14.0 0.00 0.00 0.00 80 999.9
20210118074522 34 270 2.0 7.0 0.00 0.00 0.00 79 1000.0
20210118073522 34 292 4.0 13.0 0.00 0.00 0.00 79 1000.0
20210118072525 35 270 4.0 18.0 0.00 0.00 0.00 78 1000.0
20210118071518 35 315 4.0 13.0 0.00 0.00 0.00 77 1000.0
20210118070517 36 292 4.0 13.0 0.00 0.00 0.00 77 1000.1
20210118065521 36 315 4.0 13.0 0.00 0.00 0.00 77 1000.0
20210118064525 36 292 2.0 5.0 0.00 0.00 0.00 76 1000.1
20210118063524 36 270 3.0 13.0 0.00 0.00 0.00 76 999.9
20210118062518 36 270 3.0 11.0 0.00 0.00 0.00 76 999.8
20210118061521 37 315 4.0 17.0 0.00 0.00 0.00 76 999.8
20210118060519 37 270 6.0 13.0 0.00 0.00 0.00 76 999.7
20210118055521 36 315 6.0 15.0 0.00 0.00 0.00 76 999.6
20210118054516 36 315 5.0 11.0 0.00 0.00 0.00 77 999.5
20210118053528 36 337 5.0 16.0 0.00 0.00 0.00 77 999.5
20210118052517 36 315 5.0 18.0 0.00 0.00 0.00 78 999.4
20210118051521 35 292 6.0 16.0 0.00 0.00 0.00 79 999.3
20210118050528 35 315 5.0 9.0 0.00 0.00 0.00 79 999.1
20210118045518 34 315 5.0 15.0 0.00 0.00 0.00 79 999.6
20210118044521 34 315 4.0 13.0 0.00 0.00 0.00 79 999.6
20210118043520 34 315 4.0 13.0 0.00 0.00 0.00 79 999.6
20210118042516 34 292 4.0 13.0 0.00 0.00 0.00 79 999.6
20210118041527 34 315 4.0 13.0 0.00 0.00 0.00 78 999.6
20210118040527 34 270 3.0 13.0 0.00 0.00 0.00 77 999.8
20210118035539 34 315 3.0 12.0 0.00 0.00 0.00 76 999.8
20210118034516 34 337 5.0 21.0 0.00 0.00 0.00 76 999.8
20210118033555 35 315 4.0 12.0 0.00 0.00 0.00 75 999.9
20210118032517 35 292 6.0 26.0 0.00 0.00 0.00 74 999.7
20210118031521 36 337 3.0 12.0 0.00 0.00 0.00 73 999.7
20210118030522 36 315 5.0 23.0 0.00 0.00 0.00 73 999.7
20210118025522 37 337 5.0 16.0 0.00 0.00 0.00 70 999.5
20210118024525 37 315 8.0 22.0 0.00 0.00 0.00 69 999.5
20210118023518 37 315 10.0 27.0 0.00 0.00 0.00 69 999.1
20210118022516 38 315 10.0 21.0 0.00 0.00 0.00 68 999.0
20210118021531 38 315 12.0 34.0 0.00 0.00 0.00 69 999.0
20210118020517 38 337 13.0 35.0 0.00 0.00 0.00 69 998.5
20210118015520 37 315 10.0 25.0 0.00 0.00 0.00 70 998.5
20210118014517 37 315 9.0 32.0 0.00 0.00 0.00 70 998.5
20210118013529 37 315 11.0 23.0 0.00 0.00 0.00 70 998.4
20210118012523 37 315 11.0 27.0 0.00 0.00 0.00 71 998.1
20210118011519 37 337 10.0 23.0 0.00 0.00 0.00 71 998.1
20210118010518 37 315 11.0 30.0 0.00 0.00 0.00 71 998.1
20210118005523 37 315 10.0 28.0 0.00 0.00 0.00 72 998.0
20210118004524 37 337 8.0 18.0 0.00 0.00 0.00 72 998.0
20210118003522 37 315 12.0 45.0 0.00 0.00 0.00 72 997.8
20210118002516 37 315 11.0 25.0 0.00 0.00 0.00 72 997.5
20210118001536 37 315 11.0 40.0 0.00 0.00 0.00 72 997.5
20210118000558 37 292 11.0 31.0 0.00 0.00 0.00 72 997.5
20210117235520 37 315 11.0 29.0 0.00 0.00 0.00 73 997.4
20210117234544 37 315 8.0 28.0 0.00 0.00 0.00 73 997.4
20210117233551 37 292 11.0 33.0 0.00 0.00 0.00 73 997.2
20210117232522 37 292 10.0 33.0 0.00 0.00 0.00 74 997.1
20210117231520 37 337 7.0 23.0 0.00 0.00 0.00 75 997.1
20210117230528 37 315 8.0 23.0 0.00 0.00 0.00 74 997.0
20210117225520 37 292 6.0 18.0 0.00 0.00 0.00 74 996.9
20210117224557 37 337 7.0 19.0 0.00 0.00 0.00 74 996.9
20210117223521 37 315 8.0 25.0 0.00 0.00 0.00 75 996.7
20210117222524 37 292 9.0 23.0 0.00 0.00 0.00 75 996.5
20210117221524 37 337 6.0 17.0 0.00 0.00 0.00 75 996.5
20210117220517 37 315 8.0 24.0 0.00 0.00 0.00 74 996.5
20210117215518 37 315 9.0 20.0 0.00 0.00 0.00 74 996.2
20210117214520 37 337 11.0 24.0 0.00 0.00 0.00 73 996.2
20210117213538 37 315 9.0 23.0 0.00 0.00 0.00 73 995.8
20210117212519 38 315 9.0 23.0 0.00 0.00 0.00 73 995.6
20210117211516 38 315 13.0 38.0 0.00 0.00 0.00 73 995.6
20210117210525 38 315 10.0 28.0 0.00 0.00 0.00 72 995.3
20210117205524 38 315 10.0 34.0 0.00 0.00 0.00 71 995.2
20210117204520 38 315 13.0 36.0 0.00 0.00 0.00 70 995.2
20210117203539 38 292 10.0 36.0 0.00 0.00 0.00 71 994.8
20210117202526 38 315 9.0 18.0 0.00 0.00 0.00 71 994.4
20210117201519 38 315 9.0 31.0 0.00 0.00 0.00 70 994.4
20210117200524 38 337 10.0 33.0 0.00 0.00 0.00 70 994.3
20210117195519 38 315 10.0 35.0 0.00 0.00 0.00 70 994.4
20210117194521 38 315 13.0 28.0 0.00 0.00 0.00 69 994.4
20210117193520 39 315 11.0 30.0 0.00 0.00 0.00 69 993.9
20210117192518 39 292 9.0 27.0 0.00 0.00 0.00 69 993.8
20210117191523 39 292 10.0 26.0 0.00 0.00 0.00 70 993.8
20210117190516 39 315 11.0 34.0 0.00 0.00 0.00 69 993.4
20210117185525 39 315 10.0 23.0 0.00 0.00 0.00 70 993.6
20210117184528 38 337 9.0 25.0 0.00 0.00 0.00 71 993.6
20210117183523 38 337 11.0 27.0 0.00 0.00 0.00 70 993.6
20210117182516 38 292 13.0 29.0 0.00 0.00 0.00 68 993.3
20210117181528 39 337 7.0 17.0 0.00 0.00 0.00 69 993.3
20210117180520 39 337 10.0 29.0 0.00 0.00 0.00 68 993.4
20210117175517 39 337 10.0 31.0 0.00 0.00 0.00 69 993.3
20210117174521 38 292 13.0 33.0 0.00 0.00 0.00 69 993.3
20210117173526 38 315 9.0 21.0 0.00 0.00 0.00 71 993.4
20210117172520 37 270 8.0 27.0 0.00 0.02 0.00 71 993.4
20210117171527 37 315 8.0 24.0 0.00 0.05 0.00 71 993.4
20210117170516 37 315 8.0 22.0 0.00 0.06 0.00 71 993.4
20210117165536 37 315 9.0 29.0 0.00 0.06 0.00 70 993.2
20210117164516 37 337 8.0 21.0 0.00 0.06 0.00 71 993.2
20210117163521 37 315 6.0 14.0 0.00 0.06 0.00 72 993.3
20210117162518 37 292 3.0 12.0 0.00 0.06 0.00 72 993.4
20210117161516 37 315 8.0 25.0 0.00 0.06 0.00 72 993.4
20210117160522 36 315 8.0 25.0 0.00 0.06 0.00 72 993.5
20210117155517 37 315 11.0 36.0 0.00 0.06 0.00 72 993.7
20210117154522 37 337 9.0 20.0 0.00 0.06 0.00 73 993.7
20210117153526 37 315 11.0 25.0 0.00 0.08 0.00 71 993.6
20210117152519 37 315 10.0 21.0 0.00 0.12 0.00 71 993.7
20210117151520 37 315 8.0 21.0 0.00 0.19 0.00 72 993.7
20210117150522 37 315 12.0 29.0 0.00 0.25 0.00 70 993.5
20210117145517 37 315 13.0 40.0 0.00 0.31 0.00 71 993.3
20210117144521 36 315 9.0 21.0 0.00 0.37 0.00 72 993.3
20210117143527 36 270 10.0 30.0 0.00 0.43 0.00 73 993.3
20210117142518 36 315 9.0 26.0 0.00 0.49 0.00 72 993.0
20210117141515 36 315 13.0 41.0 0.00 0.56 0.00 72 993.0
20210117140515 36 315 12.0 27.0 0.00 0.64 0.00 73 992.9
20210117135515 35 315 11.0 26.0 0.00 0.71 0.00 74 992.7
20210117134515 35 315 12.0 33.0 0.00 0.77 0.00 76 992.7
20210117133520 34 292 9.0 25.0 0.00 0.83 0.00 77 992.4
20210117132519 34 315 11.0 33.0 0.00 0.89 0.00 78 992.3
20210117131526 34 337 9.0 30.0 0.00 0.95 0.00 79 992.4
20210117130521 33 315 12.0 33.0 0.00 1.00 0.00 80 992.1
20210117125518 33 292 11.0 30.0 0.00 1.07 0.00 80 991.8
20210117124522 33 292 10.0 26.0 0.00 1.13 0.00 81 991.8
20210117123545 33 315 7.0 17.0 0.00 1.19 0.00 82 991.7
20210117122519 33 337 8.0 26.0 0.00 1.24 0.00 81 991.7
20210117121516 32 315 10.0 29.0 0.00 1.29 0.00 81 991.7
20210117120517 32 315 10.0 26.0 0.00 1.32 0.00 81 991.4
20210117115522 32 315 9.0 30.0 0.00 1.36 0.00 81 991.2
20210117114522 32 292 10.0 33.0 0.00 1.37 0.00 81 991.2
20210117113547 32 315 9.0 27.0 0.00 1.40 0.00 82 991.1
20210117112535 33 315 9.0 22.0 0.00 1.44 0.00 81 991.0
20210117111624 33 315 8.0 21.0 0.00 1.47 0.00 81 991.0
20210117110527 33 292 6.0 13.0 0.00 1.50 0.00 81 990.9
20210117105520 33 315 8.0 17.0 0.00 1.52 0.00 81 990.6
20210117104524 33 315 10.0 33.0 0.00 1.54 0.00 80 990.6
20210117103527 33 337 10.0 25.0 0.00 1.56 0.00 80 990.3
20210117102515 33 315 11.0 33.0 0.00 1.59 0.00 80 990.2
20210117101524 33 292 11.0 33.0 0.00 1.61 0.00 81 990.2
20210117100517 33 315 13.0 40.0 0.00 1.61 0.00 81 990.0
20210117095516 33 315 11.0 43.0 0.00 1.61 0.00 81 989.7
20210117094515 33 315 9.0 21.0 0.00 1.62 0.00 82 989.7
20210117093522 33 315 10.0 24.0 0.00 1.62 0.00 83 989.6